Jamestown, ND (58401)

9:31 PM CDT on March 23, 2017 (GMT -0500)
Leapaldt Addition | | Change Station

Elev 1486 ft 46.93 °N, 98.69 °W | Updated 10 seconds ago

Overcast
Overcast
34.7 °F
Feels Like 35 °F
N
3.0
Wind Variable Wind from ENE

Today
High -- | Low -- °F
--% Chance of Precip.
Yesterday
High -- | Low -- °F
Precip. -- in
Pressure 29.87 in
Visibility 5.0 miles
Clouds Overcast 7000 ft
Windchill 35 °F
Dew Point 34 °F
Humidity 98%
Rainfall 0.10 in
Snow Depth Not available.
7:31 AM 7:52 PM
Waning Crescent, 19% visible
METAR KJMS 240156Z AUTO 01004KT 5SM BR OVC070 02/01 A2981 RMK AO2 SLP113 T00170011
Pressure 29.87 in
Visibility 5.0 miles
Clouds Overcast 7000 ft
Windchill 35 °F
Dew Point 34 °F
Humidity 98%
Rainfall 0.10 in
Snow Depth Not available.
7:31 AM 7:52 PM
Waning Crescent, 19% visible
METAR KJMS 240156Z AUTO 01004KT 5SM BR OVC070 02/01 A2981 RMK AO2 SLP113 T00170011

Get Severe Weather Alerts

Thanks for signing up!

Be on the lookout for a verification email in your inbox.

You'll start receiving the daily forecast at 8 AM.

×

10-Day Weather Forecast

Almanac

Astronomy

Mar. 23, 2017 Rise Set
Actual Time
Civil Twilight
Nautical Twilight
Astronomical Twilight
Moon
Length of Visible Light
Length of Day
Tomorrow will be .
, % of the Moon is Illuminated

Today's Extremes

State Highs State Lows

Community

WunderPhotos

Upload Photos

1,962,540 photos uploaded!

WunderBlog® & News

Nearby

Air Quality

  Air Quality AQ Index Pollutant
Not available.

Snow Depth

Station Depth Elevation

Earthquake Activity

City Distance Mag. Time & Date
Minimum magnitude displayed is 2.5.

Earthquake Activity

City Distance Mag. Time & Date
Minimum magnitude displayed is 2.5.

Coastal Water Temperatures

Place Temperature

Stations

Nearby Weather Stations

Station Location Temp. Windchill Dew Point Humidity Wind Precip. Elev Updated Type
                   

Watches & Warnings

There are currently no watches in effect.